sensor_id;sensor_type;location;lat;lon;timestamp;temperature;humidity
39099;DHT22;24844;52.380;7.018;2023-06-10T00:01:41;20.90;64.20
39099;DHT22;24844;52.380;7.018;2023-06-10T00:04:07;20.80;64.30
39099;DHT22;24844;52.380;7.018;2023-06-10T00:06:32;20.90;64.30
39099;DHT22;24844;52.380;7.018;2023-06-10T00:09:05;20.60;65.40
39099;DHT22;24844;52.380;7.018;2023-06-10T00:11:33;20.60;65.60
39099;DHT22;24844;52.380;7.018;2023-06-10T00:13:59;20.70;65.20
39099;DHT22;24844;52.380;7.018;2023-06-10T00:16:25;20.70;65.20
39099;DHT22;24844;52.380;7.018;2023-06-10T00:18:51;20.60;65.80
39099;DHT22;24844;52.380;7.018;2023-06-10T00:21:17;20.60;65.80
39099;DHT22;24844;52.380;7.018;2023-06-10T00:23:44;20.50;66.40
39099;DHT22;24844;52.380;7.018;2023-06-10T00:26:10;20.50;66.40
39099;DHT22;24844;52.380;7.018;2023-06-10T00:28:36;20.60;66.60
39099;DHT22;24844;52.380;7.018;2023-06-10T00:31:01;20.50;66.90
39099;DHT22;24844;52.380;7.018;2023-06-10T00:33:27;20.40;67.10
39099;DHT22;24844;52.380;7.018;2023-06-10T00:35:53;20.30;67.60
39099;DHT22;24844;52.380;7.018;2023-06-10T00:38:19;20.30;67.80
39099;DHT22;24844;52.380;7.018;2023-06-10T00:40:44;20.20;68.10
39099;DHT22;24844;52.380;7.018;2023-06-10T00:43:10;20.20;68.50
39099;DHT22;24844;52.380;7.018;2023-06-10T00:45:35;20.00;68.50
39099;DHT22;24844;52.380;7.018;2023-06-10T00:48:02;20.00;68.90
39099;DHT22;24844;52.380;7.018;2023-06-10T00:50:27;19.90;69.20
39099;DHT22;24844;52.380;7.018;2023-06-10T00:52:54;20.00;69.30
39099;DHT22;24844;52.380;7.018;2023-06-10T00:55:21;19.80;69.70
39099;DHT22;24844;52.380;7.018;2023-06-10T00:57:47;19.90;70.10
39099;DHT22;24844;52.380;7.018;2023-06-10T01:00:14;19.70;70.70
39099;DHT22;24844;52.380;7.018;2023-06-10T01:02:42;19.80;71.10
39099;DHT22;24844;52.380;7.018;2023-06-10T01:05:10;19.70;71.50
39099;DHT22;24844;52.380;7.018;2023-06-10T01:07:47;19.70;71.80
39099;DHT22;24844;52.380;7.018;2023-06-10T01:13:03;19.70;72.10
39099;DHT22;24844;52.380;7.018;2023-06-10T01:15:34;19.60;72.50
39099;DHT22;24844;52.380;7.018;2023-06-10T01:18:08;19.50;72.70
39099;DHT22;24844;52.380;7.018;2023-06-10T01:20:41;19.40;72.80
39099;DHT22;24844;52.380;7.018;2023-06-10T01:23:09;19.40;73.20
39099;DHT22;24844;52.380;7.018;2023-06-10T01:25:40;19.40;73.20
39099;DHT22;24844;52.380;7.018;2023-06-10T01:33:36;19.40;74.20
39099;DHT22;24844;52.380;7.018;2023-06-10T01:36:03;19.30;75.30
39099;DHT22;24844;52.380;7.018;2023-06-10T01:38:33;19.20;74.70
39099;DHT22;24844;52.380;7.018;2023-06-10T01:41:03;19.30;75.30
39099;DHT22;24844;52.380;7.018;2023-06-10T01:43:28;19.20;75.80
39099;DHT22;24844;52.380;7.018;2023-06-10T01:45:57;19.10;76.20
39099;DHT22;24844;52.380;7.018;2023-06-10T01:48:23;19.10;76.40
39099;DHT22;24844;52.380;7.018;2023-06-10T01:50:48;19.00;77.50
39099;DHT22;24844;52.380;7.018;2023-06-10T01:53:14;18.90;77.40
39099;DHT22;24844;52.380;7.018;2023-06-10T01:55:39;18.80;78.00
39099;DHT22;24844;52.380;7.018;2023-06-10T01:58:05;18.80;78.80
39099;DHT22;24844;52.380;7.018;2023-06-10T02:00:31;18.80;78.80
39099;DHT22;24844;52.380;7.018;2023-06-10T02:02:56;18.70;79.40
39099;DHT22;24844;52.380;7.018;2023-06-10T02:05:22;18.70;80.40
39099;DHT22;24844;52.380;7.018;2023-06-10T02:07:48;18.80;80.60
39099;DHT22;24844;52.380;7.018;2023-06-10T02:10:13;18.70;81.00
39099;DHT22;24844;52.380;7.018;2023-06-10T02:12:39;18.70;81.80
39099;DHT22;24844;52.380;7.018;2023-06-10T02:15:05;18.60;82.30
39099;DHT22;24844;52.380;7.018;2023-06-10T02:17:30;18.60;82.70
39099;DHT22;24844;52.380;7.018;2023-06-10T02:19:56;18.50;83.70
39099;DHT22;24844;52.380;7.018;2023-06-10T02:22:23;18.50;83.60
39099;DHT22;24844;52.380;7.018;2023-06-10T02:24:49;18.40;84.90
39099;DHT22;24844;52.380;7.018;2023-06-10T02:27:15;18.30;85.50
39099;DHT22;24844;52.380;7.018;2023-06-10T02:29:41;18.30;86.30
39099;DHT22;24844;52.380;7.018;2023-06-10T02:32:07;18.20;86.70
39099;DHT22;24844;52.380;7.018;2023-06-10T02:34:33;18.30;86.80
39099;DHT22;24844;52.380;7.018;2023-06-10T02:36:59;18.30;87.00
39099;DHT22;24844;52.380;7.018;2023-06-10T02:39:25;18.20;87.20
39099;DHT22;24844;52.380;7.018;2023-06-10T02:41:50;18.20;88.10
39099;DHT22;24844;52.380;7.018;2023-06-10T02:44:18;18.20;88.20
39099;DHT22;24844;52.380;7.018;2023-06-10T02:46:44;18.10;89.00
39099;DHT22;24844;52.380;7.018;2023-06-10T02:49:09;18.00;89.50
39099;DHT22;24844;52.380;7.018;2023-06-10T02:51:35;18.00;89.90
39099;DHT22;24844;52.380;7.018;2023-06-10T02:54:01;17.90;90.00
39099;DHT22;24844;52.380;7.018;2023-06-10T02:56:27;17.80;90.40
39099;DHT22;24844;52.380;7.018;2023-06-10T02:58:52;17.80;90.80
39099;DHT22;24844;52.380;7.018;2023-06-10T03:01:18;17.70;91.00
39099;DHT22;24844;52.380;7.018;2023-06-10T03:03:44;17.70;91.10
39099;DHT22;24844;52.380;7.018;2023-06-10T03:06:12;17.60;91.30
39099;DHT22;24844;52.380;7.018;2023-06-10T03:08:38;17.60;91.60
39099;DHT22;24844;52.380;7.018;2023-06-10T03:11:04;17.60;91.60
39099;DHT22;24844;52.380;7.018;2023-06-10T03:13:30;17.60;91.90
39099;DHT22;24844;52.380;7.018;2023-06-10T03:15:55;17.50;92.40
39099;DHT22;24844;52.380;7.018;2023-06-10T03:18:25;17.50;92.80
39099;DHT22;24844;52.380;7.018;2023-06-10T03:20:51;17.40;93.10
39099;DHT22;24844;52.380;7.018;2023-06-10T03:23:17;17.40;93.20
39099;DHT22;24844;52.380;7.018;2023-06-10T03:25:44;17.30;93.70
39099;DHT22;24844;52.380;7.018;2023-06-10T03:28:10;17.30;93.80
39099;DHT22;24844;52.380;7.018;2023-06-10T03:30:35;17.30;94.00
39099;DHT22;24844;52.380;7.018;2023-06-10T03:33:01;17.30;94.40
39099;DHT22;24844;52.380;7.018;2023-06-10T03:35:26;17.20;94.90
39099;DHT22;24844;52.380;7.018;2023-06-10T03:37:52;17.20;94.90
39099;DHT22;24844;52.380;7.018;2023-06-10T03:40:17;17.20;95.50
39099;DHT22;24844;52.380;7.018;2023-06-10T03:42:43;17.20;95.50
39099;DHT22;24844;52.380;7.018;2023-06-10T03:45:11;17.30;95.50
39099;DHT22;24844;52.380;7.018;2023-06-10T03:47:38;17.20;95.40
39099;DHT22;24844;52.380;7.018;2023-06-10T03:50:07;17.20;96.30
39099;DHT22;24844;52.380;7.018;2023-06-10T03:52:38;17.30;96.30
39099;DHT22;24844;52.380;7.018;2023-06-10T03:55:05;17.40;96.30
39099;DHT22;24844;52.380;7.018;2023-06-10T03:57:30;17.40;96.80
39099;DHT22;24844;52.380;7.018;2023-06-10T03:59:56;17.50;96.90
39099;DHT22;24844;52.380;7.018;2023-06-10T04:02:22;17.60;97.30
39099;DHT22;24844;52.380;7.018;2023-06-10T04:04:48;17.90;97.20
39099;DHT22;24844;52.380;7.018;2023-06-10T04:07:13;18.10;97.30
39099;DHT22;24844;52.380;7.018;2023-06-10T04:09:39;18.40;96.80
39099;DHT22;24844;52.380;7.018;2023-06-10T04:12:05;18.70;96.30
39099;DHT22;24844;52.380;7.018;2023-06-10T04:14:35;19.00;95.90
39099;DHT22;24844;52.380;7.018;2023-06-10T04:17:05;19.20;94.80
39099;DHT22;24844;52.380;7.018;2023-06-10T04:19:33;19.50;94.30
39099;DHT22;24844;52.380;7.018;2023-06-10T04:22:01;19.70;93.50
39099;DHT22;24844;52.380;7.018;2023-06-10T04:24:27;20.00;92.50
39099;DHT22;24844;52.380;7.018;2023-06-10T04:26:53;20.10;92.60
39099;DHT22;24844;52.380;7.018;2023-06-10T04:29:18;20.20;91.50
39099;DHT22;24844;52.380;7.018;2023-06-10T04:31:44;20.60;91.30
39099;DHT22;24844;52.380;7.018;2023-06-10T04:34:12;20.60;91.10
39099;DHT22;24844;52.380;7.018;2023-06-10T04:36:38;21.00;90.50
39099;DHT22;24844;52.380;7.018;2023-06-10T04:39:03;21.00;90.30
39099;DHT22;24844;52.380;7.018;2023-06-10T04:41:31;21.10;90.00
39099;DHT22;24844;52.380;7.018;2023-06-10T04:43:56;21.50;88.40
39099;DHT22;24844;52.380;7.018;2023-06-10T04:46:23;21.70;87.40
39099;DHT22;24844;52.380;7.018;2023-06-10T04:48:48;21.50;88.10
39099;DHT22;24844;52.380;7.018;2023-06-10T04:51:14;21.60;87.50
39099;DHT22;24844;52.380;7.018;2023-06-10T04:53:39;21.50;87.60
39099;DHT22;24844;52.380;7.018;2023-06-10T04:56:05;21.70;86.70
39099;DHT22;24844;52.380;7.018;2023-06-10T04:58:33;22.20;85.20
39099;DHT22;24844;52.380;7.018;2023-06-10T05:00:58;22.20;85.00
39099;DHT22;24844;52.380;7.018;2023-06-10T05:03:25;22.20;85.40
39099;DHT22;24844;52.380;7.018;2023-06-10T05:05:50;22.30;85.00
39099;DHT22;24844;52.380;7.018;2023-06-10T05:08:16;22.50;84.30
39099;DHT22;24844;52.380;7.018;2023-06-10T05:10:41;22.70;84.00
39099;DHT22;24844;52.380;7.018;2023-06-10T05:13:07;22.90;83.10
39099;DHT22;24844;52.380;7.018;2023-06-10T05:15:33;22.80;83.10
39099;DHT22;24844;52.380;7.018;2023-06-10T05:17:58;22.90;82.00
39099;DHT22;24844;52.380;7.018;2023-06-10T05:20:25;23.10;81.40
39099;DHT22;24844;52.380;7.018;2023-06-10T05:22:51;22.80;81.70
39099;DHT22;24844;52.380;7.018;2023-06-10T05:25:16;22.50;82.20
39099;DHT22;24844;52.380;7.018;2023-06-10T05:27:42;22.10;83.10
39099;DHT22;24844;52.380;7.018;2023-06-10T05:30:10;21.50;84.40
39099;DHT22;24844;52.380;7.018;2023-06-10T05:32:36;21.50;84.30
39099;DHT22;24844;52.380;7.018;2023-06-10T05:35:01;21.20;85.40
39099;DHT22;24844;52.380;7.018;2023-06-10T05:37:29;21.20;85.60
39099;DHT22;24844;52.380;7.018;2023-06-10T05:39:54;21.20;85.70
39099;DHT22;24844;52.380;7.018;2023-06-10T05:42:20;21.40;85.00
39099;DHT22;24844;52.380;7.018;2023-06-10T05:44:45;21.40;84.90
39099;DHT22;24844;52.380;7.018;2023-06-10T05:47:11;21.40;85.00
39099;DHT22;24844;52.380;7.018;2023-06-10T05:49:37;21.40;85.20
39099;DHT22;24844;52.380;7.018;2023-06-10T05:52:02;21.30;85.80
39099;DHT22;24844;52.380;7.018;2023-06-10T05:54:28;21.60;85.30
39099;DHT22;24844;52.380;7.018;2023-06-10T05:56:53;21.50;85.70
39099;DHT22;24844;52.380;7.018;2023-06-10T05:59:19;21.70;85.40
39099;DHT22;24844;52.380;7.018;2023-06-10T06:01:45;21.70;85.50
39099;DHT22;24844;52.380;7.018;2023-06-10T06:04:10;21.90;84.40
39099;DHT22;24844;52.380;7.018;2023-06-10T06:06:38;22.20;84.00
39099;DHT22;24844;52.380;7.018;2023-06-10T06:09:04;22.50;83.30
39099;DHT22;24844;52.380;7.018;2023-06-10T06:11:29;22.70;82.90
39099;DHT22;24844;52.380;7.018;2023-06-10T06:13:55;23.10;81.90
39099;DHT22;24844;52.380;7.018;2023-06-10T06:16:21;23.50;80.70
39099;DHT22;24844;52.380;7.018;2023-06-10T06:18:47;23.90;79.70
39099;DHT22;24844;52.380;7.018;2023-06-10T06:21:12;24.00;79.70
39099;DHT22;24844;52.380;7.018;2023-06-10T06:23:38;24.50;78.20
39099;DHT22;24844;52.380;7.018;2023-06-10T06:26:03;24.80;77.80
39099;DHT22;24844;52.380;7.018;2023-06-10T06:28:29;25.50;76.40
39099;DHT22;24844;52.380;7.018;2023-06-10T06:30:56;26.00;74.20
39099;DHT22;24844;52.380;7.018;2023-06-10T06:33:22;26.50;72.00
39099;DHT22;24844;52.380;7.018;2023-06-10T06:35:48;26.50;71.40
39099;DHT22;24844;52.380;7.018;2023-06-10T06:38:13;26.80;71.10
39099;DHT22;24844;52.380;7.018;2023-06-10T06:40:39;26.70;70.90
39099;DHT22;24844;52.380;7.018;2023-06-10T06:43:04;27.00;71.60
39099;DHT22;24844;52.380;7.018;2023-06-10T06:45:30;27.00;71.30
39099;DHT22;24844;52.380;7.018;2023-06-10T06:47:55;27.50;70.40
39099;DHT22;24844;52.380;7.018;2023-06-10T06:50:21;28.50;68.50
39099;DHT22;24844;52.380;7.018;2023-06-10T06:52:47;28.90;67.00
39099;DHT22;24844;52.380;7.018;2023-06-10T06:55:13;29.20;66.10
39099;DHT22;24844;52.380;7.018;2023-06-10T06:57:38;29.60;63.70
39099;DHT22;24844;52.380;7.018;2023-06-10T07:00:04;29.70;63.00
39099;DHT22;24844;52.380;7.018;2023-06-10T07:02:30;29.80;62.80
39099;DHT22;24844;52.380;7.018;2023-06-10T07:04:57;29.60;62.00
39099;DHT22;24844;52.380;7.018;2023-06-10T07:07:24;29.50;61.60
39099;DHT22;24844;52.380;7.018;2023-06-10T07:09:50;29.60;61.60
39099;DHT22;24844;52.380;7.018;2023-06-10T07:12:15;29.80;61.40
39099;DHT22;24844;52.380;7.018;2023-06-10T07:14:41;30.40;60.00
39099;DHT22;24844;52.380;7.018;2023-06-10T07:17:07;30.40;59.90
39099;DHT22;24844;52.380;7.018;2023-06-10T07:19:32;30.80;59.60
39099;DHT22;24844;52.380;7.018;2023-06-10T07:21:58;30.90;59.20
39099;DHT22;24844;52.380;7.018;2023-06-10T07:24:24;30.50;58.90
39099;DHT22;24844;52.380;7.018;2023-06-10T07:26:50;31.30;58.80
39099;DHT22;24844;52.380;7.018;2023-06-10T07:29:15;31.70;56.50
39099;DHT22;24844;52.380;7.018;2023-06-10T07:31:41;31.60;56.10
39099;DHT22;24844;52.380;7.018;2023-06-10T07:34:07;31.80;55.60
39099;DHT22;24844;52.380;7.018;2023-06-10T07:36:33;31.20;55.70
39099;DHT22;24844;52.380;7.018;2023-06-10T07:38:58;31.40;55.30
39099;DHT22;24844;52.380;7.018;2023-06-10T07:41:24;31.40;54.50
39099;DHT22;24844;52.380;7.018;2023-06-10T07:43:53;31.80;54.40
39099;DHT22;24844;52.380;7.018;2023-06-10T07:46:22;32.20;54.30
39099;DHT22;24844;52.380;7.018;2023-06-10T07:48:48;32.30;53.70
39099;DHT22;24844;52.380;7.018;2023-06-10T07:51:15;31.90;53.90
39099;DHT22;24844;52.380;7.018;2023-06-10T07:53:41;31.10;53.10
39099;DHT22;24844;52.380;7.018;2023-06-10T07:56:07;31.30;54.40
39099;DHT22;24844;52.380;7.018;2023-06-10T07:58:32;32.00;53.00
39099;DHT22;24844;52.380;7.018;2023-06-10T08:00:58;32.90;51.70
39099;DHT22;24844;52.380;7.018;2023-06-10T08:03:23;33.60;50.00
39099;DHT22;24844;52.380;7.018;2023-06-10T08:05:49;33.40;50.50
39099;DHT22;24844;52.380;7.018;2023-06-10T08:08:14;33.30;50.60
39099;DHT22;24844;52.380;7.018;2023-06-10T08:10:40;34.40;50.00
39099;DHT22;24844;52.380;7.018;2023-06-10T08:13:07;33.70;50.30
39099;DHT22;24844;52.380;7.018;2023-06-10T08:15:32;34.40;49.90
39099;DHT22;24844;52.380;7.018;2023-06-10T08:17:58;34.70;48.80
39099;DHT22;24844;52.380;7.018;2023-06-10T08:20:24;34.40;48.80
39099;DHT22;24844;52.380;7.018;2023-06-10T08:22:49;35.30;48.60
39099;DHT22;24844;52.380;7.018;2023-06-10T08:25:15;35.30;49.40
39099;DHT22;24844;52.380;7.018;2023-06-10T08:27:41;35.60;47.70
39099;DHT22;24844;52.380;7.018;2023-06-10T08:30:07;36.10;46.70
39099;DHT22;24844;52.380;7.018;2023-06-10T08:32:33;36.50;46.70
39099;DHT22;24844;52.380;7.018;2023-06-10T08:34:59;36.20;46.50
39099;DHT22;24844;52.380;7.018;2023-06-10T08:37:24;35.30;46.90
39099;DHT22;24844;52.380;7.018;2023-06-10T08:39:50;36.10;46.40
39099;DHT22;24844;52.380;7.018;2023-06-10T08:42:33;36.50;46.70
39099;DHT22;24844;52.380;7.018;2023-06-10T08:45:01;37.10;47.30
39099;DHT22;24844;52.380;7.018;2023-06-10T08:47:29;36.50;47.40
39099;DHT22;24844;52.380;7.018;2023-06-10T08:49:57;36.90;46.20
39099;DHT22;24844;52.380;7.018;2023-06-10T08:52:29;37.30;45.80
39099;DHT22;24844;52.380;7.018;2023-06-10T08:55:02;37.90;44.60
39099;DHT22;24844;52.380;7.018;2023-06-10T08:57:30;38.10;44.30
39099;DHT22;24844;52.380;7.018;2023-06-10T08:59:56;38.10;44.30
39099;DHT22;24844;52.380;7.018;2023-06-10T09:02:24;38.00;44.30
39099;DHT22;24844;52.380;7.018;2023-06-10T09:04:50;36.60;43.70
39099;DHT22;24844;52.380;7.018;2023-06-10T09:07:16;36.60;43.90
39099;DHT22;24844;52.380;7.018;2023-06-10T09:09:42;36.70;43.40
39099;DHT22;24844;52.380;7.018;2023-06-10T09:12:08;36.90;43.80
39099;DHT22;24844;52.380;7.018;2023-06-10T09:14:34;37.60;43.30
39099;DHT22;24844;52.380;7.018;2023-06-10T09:17:01;37.80;42.90
39099;DHT22;24844;52.380;7.018;2023-06-10T09:19:27;36.00;43.40
39099;DHT22;24844;52.380;7.018;2023-06-10T09:21:53;36.30;44.10
39099;DHT22;24844;52.380;7.018;2023-06-10T09:24:20;37.20;43.10
39099;DHT22;24844;52.380;7.018;2023-06-10T09:26:46;35.90;43.90
39099;DHT22;24844;52.380;7.018;2023-06-10T09:29:11;37.00;43.50
39099;DHT22;24844;52.380;7.018;2023-06-10T09:31:39;37.40;43.00
39099;DHT22;24844;52.380;7.018;2023-06-10T09:34:13;37.90;42.80
39099;DHT22;24844;52.380;7.018;2023-06-10T09:36:39;37.60;42.30
39099;DHT22;24844;52.380;7.018;2023-06-10T09:39:14;36.60;43.90
39099;DHT22;24844;52.380;7.018;2023-06-10T09:41:43;38.40;43.10
39099;DHT22;24844;52.380;7.018;2023-06-10T09:44:19;38.50;42.70
39099;DHT22;24844;52.380;7.018;2023-06-10T09:46:46;38.60;42.60
39099;DHT22;24844;52.380;7.018;2023-06-10T09:49:12;38.00;42.40
39099;DHT22;24844;52.380;7.018;2023-06-10T09:51:41;38.40;42.90
39099;DHT22;24844;52.380;7.018;2023-06-10T09:54:13;39.00;42.80
39099;DHT22;24844;52.380;7.018;2023-06-10T09:56:39;39.50;42.00
39099;DHT22;24844;52.380;7.018;2023-06-10T09:59:08;39.70;41.90
39099;DHT22;24844;52.380;7.018;2023-06-10T10:01:34;39.50;41.60
39099;DHT22;24844;52.380;7.018;2023-06-10T10:04:00;39.60;41.20
39099;DHT22;24844;52.380;7.018;2023-06-10T10:06:26;40.00;40.60
39099;DHT22;24844;52.380;7.018;2023-06-10T10:08:52;38.80;40.10
39099;DHT22;24844;52.380;7.018;2023-06-10T10:11:20;39.40;40.70
39099;DHT22;24844;52.380;7.018;2023-06-10T10:13:49;40.40;40.30
39099;DHT22;24844;52.380;7.018;2023-06-10T10:16:16;40.20;39.40
39099;DHT22;24844;52.380;7.018;2023-06-10T10:18:47;39.00;38.70
39099;DHT22;24844;52.380;7.018;2023-06-10T10:21:16;39.60;39.10
39099;DHT22;24844;52.380;7.018;2023-06-10T10:23:58;39.70;39.20
39099;DHT22;24844;52.380;7.018;2023-06-10T10:26:27;40.50;38.20
39099;DHT22;24844;52.380;7.018;2023-06-10T10:29:12;40.60;38.80
39099;DHT22;24844;52.380;7.018;2023-06-10T10:31:42;40.90;38.80
39099;DHT22;24844;52.380;7.018;2023-06-10T10:34:15;41.00;38.10
39099;DHT22;24844;52.380;7.018;2023-06-10T10:36:42;40.70;38.10
39099;DHT22;24844;52.380;7.018;2023-06-10T10:39:08;41.00;37.40
39099;DHT22;24844;52.380;7.018;2023-06-10T10:41:36;39.30;37.40
39099;DHT22;24844;52.380;7.018;2023-06-10T10:44:04;37.40;38.40
39099;DHT22;24844;52.380;7.018;2023-06-10T10:46:45;37.10;39.70
39099;DHT22;24844;52.380;7.018;2023-06-10T10:49:15;39.40;39.40
39099;DHT22;24844;52.380;7.018;2023-06-10T10:51:57;39.50;37.40
39099;DHT22;24844;52.380;7.018;2023-06-10T10:54:36;40.20;37.80
39099;DHT22;24844;52.380;7.018;2023-06-10T10:59:59;38.00;38.50
39099;DHT22;24844;52.380;7.018;2023-06-10T11:02:32;35.70;40.50
39099;DHT22;24844;52.380;7.018;2023-06-10T11:04:58;33.50;42.60
39099;DHT22;24844;52.380;7.018;2023-06-10T11:07:30;33.70;41.70
39099;DHT22;24844;52.380;7.018;2023-06-10T11:10:06;33.60;41.60
39099;DHT22;24844;52.380;7.018;2023-06-10T11:15:13;33.20;42.10
39099;DHT22;24844;52.380;7.018;2023-06-10T11:26:14;31.50;42.00
39099;DHT22;24844;52.380;7.018;2023-06-10T11:31:22;30.90;42.30
39099;DHT22;24844;52.380;7.018;2023-06-10T11:33:48;30.90;42.90
39099;DHT22;24844;52.380;7.018;2023-06-10T11:36:17;30.50;44.50
39099;DHT22;24844;52.380;7.018;2023-06-10T11:38:43;30.40;45.00
39099;DHT22;24844;52.380;7.018;2023-06-10T11:41:11;30.80;43.80
39099;DHT22;24844;52.380;7.018;2023-06-10T11:43:37;30.60;43.10
39099;DHT22;24844;52.380;7.018;2023-06-10T11:46:08;30.30;43.80
39099;DHT22;24844;52.380;7.018;2023-06-10T11:48:33;30.20;44.20
39099;DHT22;24844;52.380;7.018;2023-06-10T11:50:59;30.60;42.20
39099;DHT22;24844;52.380;7.018;2023-06-10T11:53:25;30.50;42.90
39099;DHT22;24844;52.380;7.018;2023-06-10T11:55:51;30.50;41.80
39099;DHT22;24844;52.380;7.018;2023-06-10T11:58:21;30.30;42.40
39099;DHT22;24844;52.380;7.018;2023-06-10T12:00:51;30.20;44.50
39099;DHT22;24844;52.380;7.018;2023-06-10T12:03:19;30.40;43.80
39099;DHT22;24844;52.380;7.018;2023-06-10T12:06:14;29.80;44.10
39099;DHT22;24844;52.380;7.018;2023-06-10T12:08:43;30.20;43.60
39099;DHT22;24844;52.380;7.018;2023-06-10T12:11:09;30.40;43.30
39099;DHT22;24844;52.380;7.018;2023-06-10T12:13:35;30.10;44.40
39099;DHT22;24844;52.380;7.018;2023-06-10T12:16:10;29.30;45.10
39099;DHT22;24844;52.380;7.018;2023-06-10T12:18:35;29.00;45.00
39099;DHT22;24844;52.380;7.018;2023-06-10T12:21:01;28.70;46.40
39099;DHT22;24844;52.380;7.018;2023-06-10T12:23:28;28.90;46.50
39099;DHT22;24844;52.380;7.018;2023-06-10T12:25:55;28.90;46.60
39099;DHT22;24844;52.380;7.018;2023-06-10T12:28:25;28.60;46.90
39099;DHT22;24844;52.380;7.018;2023-06-10T12:30:51;28.60;46.90
39099;DHT22;24844;52.380;7.018;2023-06-10T12:33:18;28.30;46.20
39099;DHT22;24844;52.380;7.018;2023-06-10T12:35:48;28.30;46.60
39099;DHT22;24844;52.380;7.018;2023-06-10T12:38:15;29.10;46.50
39099;DHT22;24844;52.380;7.018;2023-06-10T12:40:48;29.00;45.20
39099;DHT22;24844;52.380;7.018;2023-06-10T12:43:22;28.50;45.40
39099;DHT22;24844;52.380;7.018;2023-06-10T12:45:48;28.60;46.90
39099;DHT22;24844;52.380;7.018;2023-06-10T12:48:24;28.50;47.00
39099;DHT22;24844;52.380;7.018;2023-06-10T12:50:53;29.10;45.90
39099;DHT22;24844;52.380;7.018;2023-06-10T12:53:20;29.50;46.00
39099;DHT22;24844;52.380;7.018;2023-06-10T12:55:47;29.40;46.40
39099;DHT22;24844;52.380;7.018;2023-06-10T12:58:13;29.70;45.90
39099;DHT22;24844;52.380;7.018;2023-06-10T13:00:39;29.30;45.60
39099;DHT22;24844;52.380;7.018;2023-06-10T13:03:05;29.00;45.10
39099;DHT22;24844;52.380;7.018;2023-06-10T13:05:32;28.90;45.20
39099;DHT22;24844;52.380;7.018;2023-06-10T13:07:58;28.80;45.10
39099;DHT22;24844;52.380;7.018;2023-06-10T13:10:24;28.90;44.90
39099;DHT22;24844;52.380;7.018;2023-06-10T13:12:51;29.30;45.00
39099;DHT22;24844;52.380;7.018;2023-06-10T13:15:17;29.80;44.40
39099;DHT22;24844;52.380;7.018;2023-06-10T13:17:46;29.80;43.50
39099;DHT22;24844;52.380;7.018;2023-06-10T13:20:14;29.20;43.70
39099;DHT22;24844;52.380;7.018;2023-06-10T13:22:41;29.40;44.80
39099;DHT22;24844;52.380;7.018;2023-06-10T13:25:07;29.40;44.30
39099;DHT22;24844;52.380;7.018;2023-06-10T13:27:34;29.10;43.90
39099;DHT22;24844;52.380;7.018;2023-06-10T13:30:00;29.10;44.20
39099;DHT22;24844;52.380;7.018;2023-06-10T13:32:26;29.10;43.60
39099;DHT22;24844;52.380;7.018;2023-06-10T13:34:51;29.10;44.20
39099;DHT22;24844;52.380;7.018;2023-06-10T13:37:19;29.20;44.50
39099;DHT22;24844;52.380;7.018;2023-06-10T13:39:45;29.70;43.00
39099;DHT22;24844;52.380;7.018;2023-06-10T13:42:13;29.70;43.80
39099;DHT22;24844;52.380;7.018;2023-06-10T13:44:39;29.10;45.10
39099;DHT22;24844;52.380;7.018;2023-06-10T13:47:05;28.80;44.70
39099;DHT22;24844;52.380;7.018;2023-06-10T13:49:30;28.60;44.40
39099;DHT22;24844;52.380;7.018;2023-06-10T13:51:56;28.80;44.40
39099;DHT22;24844;52.380;7.018;2023-06-10T13:54:22;29.60;43.70
39099;DHT22;24844;52.380;7.018;2023-06-10T13:56:48;29.90;43.50
39099;DHT22;24844;52.380;7.018;2023-06-10T13:59:13;29.80;43.90
39099;DHT22;24844;52.380;7.018;2023-06-10T14:01:39;29.20;44.40
39099;DHT22;24844;52.380;7.018;2023-06-10T14:04:06;29.10;44.20
39099;DHT22;24844;52.380;7.018;2023-06-10T14:06:32;28.70;44.40
39099;DHT22;24844;52.380;7.018;2023-06-10T14:08:59;28.40;44.40
39099;DHT22;24844;52.380;7.018;2023-06-10T14:11:24;28.30;45.00
39099;DHT22;24844;52.380;7.018;2023-06-10T14:13:50;28.70;44.80
39099;DHT22;24844;52.380;7.018;2023-06-10T14:16:15;29.60;44.40
39099;DHT22;24844;52.380;7.018;2023-06-10T14:18:41;29.60;44.70
39099;DHT22;24844;52.380;7.018;2023-06-10T14:21:06;29.50;44.80
39099;DHT22;24844;52.380;7.018;2023-06-10T14:23:32;30.10;43.70
39099;DHT22;24844;52.380;7.018;2023-06-10T14:25:58;30.30;43.40
39099;DHT22;24844;52.380;7.018;2023-06-10T14:28:24;29.50;44.80
39099;DHT22;24844;52.380;7.018;2023-06-10T14:30:51;29.30;44.90
39099;DHT22;24844;52.380;7.018;2023-06-10T14:33:17;29.00;45.00
39099;DHT22;24844;52.380;7.018;2023-06-10T14:35:43;29.10;45.10
39099;DHT22;24844;52.380;7.018;2023-06-10T14:38:09;29.30;44.60
39099;DHT22;24844;52.380;7.018;2023-06-10T14:40:35;29.80;44.50
39099;DHT22;24844;52.380;7.018;2023-06-10T14:43:00;29.50;44.40
39099;DHT22;24844;52.380;7.018;2023-06-10T14:45:29;29.10;44.80
39099;DHT22;24844;52.380;7.018;2023-06-10T14:47:55;29.00;45.70
39099;DHT22;24844;52.380;7.018;2023-06-10T14:50:20;29.00;45.80
39099;DHT22;24844;52.380;7.018;2023-06-10T14:52:46;29.00;45.20
39099;DHT22;24844;52.380;7.018;2023-06-10T14:55:12;29.10;45.80
39099;DHT22;24844;52.380;7.018;2023-06-10T14:57:37;29.30;45.20
39099;DHT22;24844;52.380;7.018;2023-06-10T15:00:03;29.70;45.20
39099;DHT22;24844;52.380;7.018;2023-06-10T15:02:29;29.70;44.60
39099;DHT22;24844;52.380;7.018;2023-06-10T15:04:55;30.00;44.20
39099;DHT22;24844;52.380;7.018;2023-06-10T15:07:20;30.10;44.20
39099;DHT22;24844;52.380;7.018;2023-06-10T15:09:46;29.40;45.30
39099;DHT22;24844;52.380;7.018;2023-06-10T15:12:12;29.00;45.60
39099;DHT22;24844;52.380;7.018;2023-06-10T15:14:37;29.40;45.70
39099;DHT22;24844;52.380;7.018;2023-06-10T15:17:03;29.70;46.00
39099;DHT22;24844;52.380;7.018;2023-06-10T15:19:29;29.40;45.90
39099;DHT22;24844;52.380;7.018;2023-06-10T15:21:54;29.50;45.80
39099;DHT22;24844;52.380;7.018;2023-06-10T15:24:20;30.00;45.40
39099;DHT22;24844;52.380;7.018;2023-06-10T15:26:45;30.10;45.50
39099;DHT22;24844;52.380;7.018;2023-06-10T15:29:11;29.90;45.40
39099;DHT22;24844;52.380;7.018;2023-06-10T15:31:37;30.30;45.20
39099;DHT22;24844;52.380;7.018;2023-06-10T15:34:03;30.20;45.20
39099;DHT22;24844;52.380;7.018;2023-06-10T15:36:29;30.10;45.80
39099;DHT22;24844;52.380;7.018;2023-06-10T15:39:02;30.20;45.80
39099;DHT22;24844;52.380;7.018;2023-06-10T15:41:28;30.60;45.30
39099;DHT22;24844;52.380;7.018;2023-06-10T15:43:54;30.50;45.50
39099;DHT22;24844;52.380;7.018;2023-06-10T15:46:19;30.70;45.90
39099;DHT22;24844;52.380;7.018;2023-06-10T15:48:45;30.80;45.00
39099;DHT22;24844;52.380;7.018;2023-06-10T15:51:11;30.30;46.00
39099;DHT22;24844;52.380;7.018;2023-06-10T15:53:36;30.10;45.80